sensor_id;sensor_type;location;lat;lon;timestamp;temperature;humidity
23186;DHT22;11761;51.324;4.590;2022-10-30T00:00:35;13.10;99.90
23186;DHT22;11761;51.324;4.590;2022-10-30T00:03:01;13.10;99.90
23186;DHT22;11761;51.324;4.590;2022-10-30T00:05:27;13.20;99.90
23186;DHT22;11761;51.324;4.590;2022-10-30T00:07:57;13.20;99.90
23186;DHT22;11761;51.324;4.590;2022-10-30T00:10:24;13.20;99.90
23186;DHT22;11761;51.324;4.590;2022-10-30T00:12:50;13.20;99.90
23186;DHT22;11761;51.324;4.590;2022-10-30T00:15:16;13.30;99.90
23186;DHT22;11761;51.324;4.590;2022-10-30T00:17:43;13.30;99.90
23186;DHT22;11761;51.324;4.590;2022-10-30T00:20:09;13.20;99.90
23186;DHT22;11761;51.324;4.590;2022-10-30T00:22:35;13.30;99.90
23186;DHT22;11761;51.324;4.590;2022-10-30T00:25:03;13.40;99.90
23186;DHT22;11761;51.324;4.590;2022-10-30T00:27:30;13.40;99.90
23186;DHT22;11761;51.324;4.590;2022-10-30T00:29:56;13.50;99.90
23186;DHT22;11761;51.324;4.590;2022-10-30T00:32:22;13.50;99.90
23186;DHT22;11761;51.324;4.590;2022-10-30T00:34:48;13.50;99.90
23186;DHT22;11761;51.324;4.590;2022-10-30T00:37:14;13.50;99.90
23186;DHT22;11761;51.324;4.590;2022-10-30T00:39:41;13.60;99.90
23186;DHT22;11761;51.324;4.590;2022-10-30T00:42:16;13.60;99.90
23186;DHT22;11761;51.324;4.590;2022-10-30T00:44:49;13.70;99.90
23186;DHT22;11761;51.324;4.590;2022-10-30T00:47:25;14.00;99.90
23186;DHT22;11761;51.324;4.590;2022-10-30T00:52:31;13.90;99.90
23186;DHT22;11761;51.324;4.590;2022-10-30T00:55:03;14.10;99.90
23186;DHT22;11761;51.324;4.590;2022-10-30T00:57:31;14.20;99.90
23186;DHT22;11761;51.324;4.590;2022-10-30T00:59:57;14.20;99.90
23186;DHT22;11761;51.324;4.590;2022-10-30T01:02:23;14.40;99.90
23186;DHT22;11761;51.324;4.590;2022-10-30T01:04:51;14.30;99.90
23186;DHT22;11761;51.324;4.590;2022-10-30T01:07:18;14.20;99.90
23186;DHT22;11761;51.324;4.590;2022-10-30T01:09:45;14.10;99.90
23186;DHT22;11761;51.324;4.590;2022-10-30T01:12:13;14.00;99.90
23186;DHT22;11761;51.324;4.590;2022-10-30T01:14:45;13.90;99.90
23186;DHT22;11761;51.324;4.590;2022-10-30T01:17:32;13.90;99.90
23186;DHT22;11761;51.324;4.590;2022-10-30T01:20:30;13.80;99.90
23186;DHT22;11761;51.324;4.590;2022-10-30T01:28:29;13.70;99.90
23186;DHT22;11761;51.324;4.590;2022-10-30T01:31:07;13.70;99.90
23186;DHT22;11761;51.324;4.590;2022-10-30T01:36:38;13.50;99.90
23186;DHT22;11761;51.324;4.590;2022-10-30T01:41:35;13.20;99.90
23186;DHT22;11761;51.324;4.590;2022-10-30T01:44:04;13.30;99.90
23186;DHT22;11761;51.324;4.590;2022-10-30T01:49:10;13.40;99.90
23186;DHT22;11761;51.324;4.590;2022-10-30T01:51:57;13.30;99.90
23186;DHT22;11761;51.324;4.590;2022-10-30T01:54:51;13.30;99.90
23186;DHT22;11761;51.324;4.590;2022-10-30T02:00:06;13.20;99.90
23186;DHT22;11761;51.324;4.590;2022-10-30T02:02:33;13.30;99.90
23186;DHT22;11761;51.324;4.590;2022-10-30T02:05:00;13.30;99.90
23186;DHT22;11761;51.324;4.590;2022-10-30T02:07:26;13.30;99.90
23186;DHT22;11761;51.324;4.590;2022-10-30T02:09:53;13.30;99.90
23186;DHT22;11761;51.324;4.590;2022-10-30T02:12:20;13.30;99.90
23186;DHT22;11761;51.324;4.590;2022-10-30T02:14:50;13.20;99.90
23186;DHT22;11761;51.324;4.590;2022-10-30T02:17:18;13.10;99.90
23186;DHT22;11761;51.324;4.590;2022-10-30T02:19:44;13.00;99.90
23186;DHT22;11761;51.324;4.590;2022-10-30T02:22:10;12.90;99.90
23186;DHT22;11761;51.324;4.590;2022-10-30T02:24:37;12.90;99.90
23186;DHT22;11761;51.324;4.590;2022-10-30T02:27:03;12.90;99.90
23186;DHT22;11761;51.324;4.590;2022-10-30T02:29:29;12.90;99.90
23186;DHT22;11761;51.324;4.590;2022-10-30T02:31:56;12.80;99.90
23186;DHT22;11761;51.324;4.590;2022-10-30T02:34:22;12.80;99.90
23186;DHT22;11761;51.324;4.590;2022-10-30T02:36:48;12.80;99.90
23186;DHT22;11761;51.324;4.590;2022-10-30T02:39:14;12.80;99.90
23186;DHT22;11761;51.324;4.590;2022-10-30T02:41:40;12.80;99.90
23186;DHT22;11761;51.324;4.590;2022-10-30T02:44:06;12.70;99.90
23186;DHT22;11761;51.324;4.590;2022-10-30T02:46:33;12.70;99.90
23186;DHT22;11761;51.324;4.590;2022-10-30T02:48:59;12.80;99.90
23186;DHT22;11761;51.324;4.590;2022-10-30T02:51:25;12.70;99.90
23186;DHT22;11761;51.324;4.590;2022-10-30T02:53:52;12.70;99.90
23186;DHT22;11761;51.324;4.590;2022-10-30T02:56:18;12.80;99.90
23186;DHT22;11761;51.324;4.590;2022-10-30T02:58:44;12.90;99.90
23186;DHT22;11761;51.324;4.590;2022-10-30T03:01:17;12.90;99.90
23186;DHT22;11761;51.324;4.590;2022-10-30T03:03:44;13.00;99.90
23186;DHT22;11761;51.324;4.590;2022-10-30T03:06:13;12.90;99.90
23186;DHT22;11761;51.324;4.590;2022-10-30T03:08:41;13.00;99.90
23186;DHT22;11761;51.324;4.590;2022-10-30T03:11:10;13.00;99.90
23186;DHT22;11761;51.324;4.590;2022-10-30T03:13:36;12.90;99.90
23186;DHT22;11761;51.324;4.590;2022-10-30T03:16:05;12.90;99.90
23186;DHT22;11761;51.324;4.590;2022-10-30T03:18:32;12.80;99.90
23186;DHT22;11761;51.324;4.590;2022-10-30T03:20:59;12.70;99.90
23186;DHT22;11761;51.324;4.590;2022-10-30T03:23:26;12.60;99.90
23186;DHT22;11761;51.324;4.590;2022-10-30T03:25:53;12.50;99.90
23186;DHT22;11761;51.324;4.590;2022-10-30T03:28:25;12.50;99.90
23186;DHT22;11761;51.324;4.590;2022-10-30T03:30:58;12.50;99.90
23186;DHT22;11761;51.324;4.590;2022-10-30T03:33:24;12.50;99.90
23186;DHT22;11761;51.324;4.590;2022-10-30T03:35:50;12.50;99.90
23186;DHT22;11761;51.324;4.590;2022-10-30T03:38:17;12.60;99.90
23186;DHT22;11761;51.324;4.590;2022-10-30T03:40:43;12.50;99.90
23186;DHT22;11761;51.324;4.590;2022-10-30T03:43:09;12.50;99.90
23186;DHT22;11761;51.324;4.590;2022-10-30T03:45:36;12.50;99.90
23186;DHT22;11761;51.324;4.590;2022-10-30T03:48:03;12.60;99.90
23186;DHT22;11761;51.324;4.590;2022-10-30T03:50:31;12.50;99.90
23186;DHT22;11761;51.324;4.590;2022-10-30T03:52:57;12.50;99.90
23186;DHT22;11761;51.324;4.590;2022-10-30T03:55:24;12.50;99.90
23186;DHT22;11761;51.324;4.590;2022-10-30T03:57:50;12.60;99.90
23186;DHT22;11761;51.324;4.590;2022-10-30T04:00:17;12.70;99.90
23186;DHT22;11761;51.324;4.590;2022-10-30T04:02:48;12.70;99.90
23186;DHT22;11761;51.324;4.590;2022-10-30T04:05:16;12.70;99.90
23186;DHT22;11761;51.324;4.590;2022-10-30T04:07:43;12.80;99.90
23186;DHT22;11761;51.324;4.590;2022-10-30T04:10:10;12.60;99.90
23186;DHT22;11761;51.324;4.590;2022-10-30T04:12:37;12.60;99.90
23186;DHT22;11761;51.324;4.590;2022-10-30T04:15:04;12.60;99.90
23186;DHT22;11761;51.324;4.590;2022-10-30T04:17:30;12.40;99.90
23186;DHT22;11761;51.324;4.590;2022-10-30T04:19:56;12.30;99.90
23186;DHT22;11761;51.324;4.590;2022-10-30T04:22:23;12.40;99.90
23186;DHT22;11761;51.324;4.590;2022-10-30T04:24:50;12.40;99.90
23186;DHT22;11761;51.324;4.590;2022-10-30T04:27:16;12.40;99.90
23186;DHT22;11761;51.324;4.590;2022-10-30T04:29:42;12.20;99.90
23186;DHT22;11761;51.324;4.590;2022-10-30T04:32:09;12.20;99.90
23186;DHT22;11761;51.324;4.590;2022-10-30T04:34:35;12.30;99.90
23186;DHT22;11761;51.324;4.590;2022-10-30T04:37:07;12.30;99.90
23186;DHT22;11761;51.324;4.590;2022-10-30T04:39:33;12.20;99.90
23186;DHT22;11761;51.324;4.590;2022-10-30T04:41:59;12.10;99.90
23186;DHT22;11761;51.324;4.590;2022-10-30T04:44:25;12.10;99.90
23186;DHT22;11761;51.324;4.590;2022-10-30T04:46:51;12.00;99.90
23186;DHT22;11761;51.324;4.590;2022-10-30T04:49:18;11.90;99.90
23186;DHT22;11761;51.324;4.590;2022-10-30T04:51:44;11.90;99.90
23186;DHT22;11761;51.324;4.590;2022-10-30T04:54:12;11.80;99.90
23186;DHT22;11761;51.324;4.590;2022-10-30T04:56:38;11.90;99.90
23186;DHT22;11761;51.324;4.590;2022-10-30T04:59:04;11.90;99.90
23186;DHT22;11761;51.324;4.590;2022-10-30T05:01:30;11.70;99.90
23186;DHT22;11761;51.324;4.590;2022-10-30T05:03:56;11.80;99.90
23186;DHT22;11761;51.324;4.590;2022-10-30T05:06:25;11.80;99.90
23186;DHT22;11761;51.324;4.590;2022-10-30T05:08:52;11.80;99.90
23186;DHT22;11761;51.324;4.590;2022-10-30T05:11:19;11.80;99.90
23186;DHT22;11761;51.324;4.590;2022-10-30T05:13:46;11.70;99.90
23186;DHT22;11761;51.324;4.590;2022-10-30T05:16:12;11.60;99.90
23186;DHT22;11761;51.324;4.590;2022-10-30T05:18:38;11.60;99.90
23186;DHT22;11761;51.324;4.590;2022-10-30T05:21:04;11.50;99.90
23186;DHT22;11761;51.324;4.590;2022-10-30T05:23:31;11.50;99.90
23186;DHT22;11761;51.324;4.590;2022-10-30T05:25:59;11.50;99.90
23186;DHT22;11761;51.324;4.590;2022-10-30T05:28:25;11.40;99.90
23186;DHT22;11761;51.324;4.590;2022-10-30T05:30:52;11.40;99.90
23186;DHT22;11761;51.324;4.590;2022-10-30T05:33:18;11.50;99.90
23186;DHT22;11761;51.324;4.590;2022-10-30T05:35:45;11.60;99.90
23186;DHT22;11761;51.324;4.590;2022-10-30T05:38:11;11.60;99.90
23186;DHT22;11761;51.324;4.590;2022-10-30T05:40:38;11.70;99.90
23186;DHT22;11761;51.324;4.590;2022-10-30T05:43:04;11.70;99.90
23186;DHT22;11761;51.324;4.590;2022-10-30T05:45:31;11.70;99.90
23186;DHT22;11761;51.324;4.590;2022-10-30T05:47:59;11.50;99.90
23186;DHT22;11761;51.324;4.590;2022-10-30T05:50:26;11.50;99.90
23186;DHT22;11761;51.324;4.590;2022-10-30T05:53:00;11.50;99.90
23186;DHT22;11761;51.324;4.590;2022-10-30T05:55:27;11.60;99.90
23186;DHT22;11761;51.324;4.590;2022-10-30T05:57:58;11.60;99.90
23186;DHT22;11761;51.324;4.590;2022-10-30T06:00:25;11.50;99.90
23186;DHT22;11761;51.324;4.590;2022-10-30T06:02:57;11.60;99.90
23186;DHT22;11761;51.324;4.590;2022-10-30T06:05:23;11.60;99.90
23186;DHT22;11761;51.324;4.590;2022-10-30T06:07:53;11.60;99.90
23186;DHT22;11761;51.324;4.590;2022-10-30T06:10:20;11.60;99.90
23186;DHT22;11761;51.324;4.590;2022-10-30T06:12:58;11.50;99.90
23186;DHT22;11761;51.324;4.590;2022-10-30T06:15:25;11.50;99.90
23186;DHT22;11761;51.324;4.590;2022-10-30T06:17:51;11.50;99.90
23186;DHT22;11761;51.324;4.590;2022-10-30T06:20:19;11.50;99.90
23186;DHT22;11761;51.324;4.590;2022-10-30T06:22:59;11.50;99.90
23186;DHT22;11761;51.324;4.590;2022-10-30T06:25:26;11.50;99.90
23186;DHT22;11761;51.324;4.590;2022-10-30T06:27:53;11.50;99.90
23186;DHT22;11761;51.324;4.590;2022-10-30T06:30:19;11.60;99.90
23186;DHT22;11761;51.324;4.590;2022-10-30T06:32:47;11.50;99.90
23186;DHT22;11761;51.324;4.590;2022-10-30T06:35:13;11.50;99.90
23186;DHT22;11761;51.324;4.590;2022-10-30T06:37:47;11.50;99.90
23186;DHT22;11761;51.324;4.590;2022-10-30T06:40:13;11.50;99.90
23186;DHT22;11761;51.324;4.590;2022-10-30T06:42:48;11.50;99.90
23186;DHT22;11761;51.324;4.590;2022-10-30T06:45:15;11.50;99.90
23186;DHT22;11761;51.324;4.590;2022-10-30T06:47:42;11.50;99.90
23186;DHT22;11761;51.324;4.590;2022-10-30T06:50:15;11.50;99.90
23186;DHT22;11761;51.324;4.590;2022-10-30T06:52:41;11.50;99.90
23186;DHT22;11761;51.324;4.590;2022-10-30T06:55:09;11.60;99.90
23186;DHT22;11761;51.324;4.590;2022-10-30T06:57:35;11.80;99.90
23186;DHT22;11761;51.324;4.590;2022-10-30T07:00:03;11.70;99.90
23186;DHT22;11761;51.324;4.590;2022-10-30T07:02:30;11.80;99.90
23186;DHT22;11761;51.324;4.590;2022-10-30T07:04:56;11.90;99.90
23186;DHT22;11761;51.324;4.590;2022-10-30T07:07:22;11.90;99.90
23186;DHT22;11761;51.324;4.590;2022-10-30T07:09:48;11.90;99.90
23186;DHT22;11761;51.324;4.590;2022-10-30T07:12:14;11.80;99.90
23186;DHT22;11761;51.324;4.590;2022-10-30T07:14:40;11.80;99.90
23186;DHT22;11761;51.324;4.590;2022-10-30T07:17:07;11.90;99.90
23186;DHT22;11761;51.324;4.590;2022-10-30T07:19:33;11.90;99.90
23186;DHT22;11761;51.324;4.590;2022-10-30T07:22:00;12.00;99.90
23186;DHT22;11761;51.324;4.590;2022-10-30T07:24:26;12.00;99.90
23186;DHT22;11761;51.324;4.590;2022-10-30T07:26:53;12.10;99.90
23186;DHT22;11761;51.324;4.590;2022-10-30T07:29:20;12.20;99.90
23186;DHT22;11761;51.324;4.590;2022-10-30T07:31:46;12.20;99.90
23186;DHT22;11761;51.324;4.590;2022-10-30T07:34:14;12.20;99.90
23186;DHT22;11761;51.324;4.590;2022-10-30T07:36:40;12.30;99.90
23186;DHT22;11761;51.324;4.590;2022-10-30T07:39:07;12.40;99.90
23186;DHT22;11761;51.324;4.590;2022-10-30T07:41:33;12.40;99.90
23186;DHT22;11761;51.324;4.590;2022-10-30T07:43:59;12.50;99.90
23186;DHT22;11761;51.324;4.590;2022-10-30T07:46:25;12.60;99.90
23186;DHT22;11761;51.324;4.590;2022-10-30T07:48:51;12.70;99.90
23186;DHT22;11761;51.324;4.590;2022-10-30T07:51:17;12.90;99.90
23186;DHT22;11761;51.324;4.590;2022-10-30T07:53:43;13.00;99.90
23186;DHT22;11761;51.324;4.590;2022-10-30T07:56:09;13.10;99.90
23186;DHT22;11761;51.324;4.590;2022-10-30T07:58:35;13.30;99.90
23186;DHT22;11761;51.324;4.590;2022-10-30T08:01:02;13.40;99.90
23186;DHT22;11761;51.324;4.590;2022-10-30T08:03:29;13.50;99.90
23186;DHT22;11761;51.324;4.590;2022-10-30T08:05:55;13.60;99.90
23186;DHT22;11761;51.324;4.590;2022-10-30T08:08:21;13.90;99.90
23186;DHT22;11761;51.324;4.590;2022-10-30T08:10:47;14.20;99.90
23186;DHT22;11761;51.324;4.590;2022-10-30T08:13:13;14.40;99.90
23186;DHT22;11761;51.324;4.590;2022-10-30T08:15:41;14.50;99.90
23186;DHT22;11761;51.324;4.590;2022-10-30T08:18:07;14.60;99.90
23186;DHT22;11761;51.324;4.590;2022-10-30T08:20:33;14.80;99.90
23186;DHT22;11761;51.324;4.590;2022-10-30T08:23:00;14.90;99.90
23186;DHT22;11761;51.324;4.590;2022-10-30T08:25:27;14.90;99.90
23186;DHT22;11761;51.324;4.590;2022-10-30T08:27:55;14.90;99.90
23186;DHT22;11761;51.324;4.590;2022-10-30T08:30:23;15.00;99.90
23186;DHT22;11761;51.324;4.590;2022-10-30T08:32:49;14.90;99.90
23186;DHT22;11761;51.324;4.590;2022-10-30T08:35:16;14.90;99.90
23186;DHT22;11761;51.324;4.590;2022-10-30T08:37:42;14.80;99.90
23186;DHT22;11761;51.324;4.590;2022-10-30T08:40:09;14.90;99.90
23186;DHT22;11761;51.324;4.590;2022-10-30T08:42:36;15.10;99.90
23186;DHT22;11761;51.324;4.590;2022-10-30T08:45:04;15.20;99.90
23186;DHT22;11761;51.324;4.590;2022-10-30T08:47:30;15.30;99.90
23186;DHT22;11761;51.324;4.590;2022-10-30T08:49:56;15.30;99.90
23186;DHT22;11761;51.324;4.590;2022-10-30T08:52:22;15.40;99.90
23186;DHT22;11761;51.324;4.590;2022-10-30T08:54:48;15.50;99.90
23186;DHT22;11761;51.324;4.590;2022-10-30T08:57:14;15.60;99.90
23186;DHT22;11761;51.324;4.590;2022-10-30T08:59:40;15.60;99.90
23186;DHT22;11761;51.324;4.590;2022-10-30T09:02:07;15.60;99.90
23186;DHT22;11761;51.324;4.590;2022-10-30T09:04:34;15.70;99.90
23186;DHT22;11761;51.324;4.590;2022-10-30T09:07:00;15.80;99.90
23186;DHT22;11761;51.324;4.590;2022-10-30T09:09:26;15.90;99.90
23186;DHT22;11761;51.324;4.590;2022-10-30T09:11:52;16.00;99.90
23186;DHT22;11761;51.324;4.590;2022-10-30T09:14:18;16.00;99.90
23186;DHT22;11761;51.324;4.590;2022-10-30T09:16:45;16.00;99.90
23186;DHT22;11761;51.324;4.590;2022-10-30T09:19:11;16.00;99.90
23186;DHT22;11761;51.324;4.590;2022-10-30T09:21:37;16.10;99.90
23186;DHT22;11761;51.324;4.590;2022-10-30T09:24:03;16.10;99.90
23186;DHT22;11761;51.324;4.590;2022-10-30T09:26:29;16.20;99.90
23186;DHT22;11761;51.324;4.590;2022-10-30T09:28:55;16.20;99.90
23186;DHT22;11761;51.324;4.590;2022-10-30T09:31:21;16.30;99.90
23186;DHT22;11761;51.324;4.590;2022-10-30T09:33:48;16.40;99.90
23186;DHT22;11761;51.324;4.590;2022-10-30T09:36:14;16.50;99.90
23186;DHT22;11761;51.324;4.590;2022-10-30T09:38:40;16.60;99.90
23186;DHT22;11761;51.324;4.590;2022-10-30T10:00:14;17.10;99.90
23186;DHT22;11761;51.324;4.590;2022-10-30T10:05:55;17.60;99.90
23186;DHT22;11761;51.324;4.590;2022-10-30T10:09:17;17.80;99.90
23186;DHT22;11761;51.324;4.590;2022-10-30T10:11:25;17.90;99.90
23186;DHT22;11761;51.324;4.590;2022-10-30T10:14:14;18.20;99.90
23186;DHT22;11761;51.324;4.590;2022-10-30T10:16:47;18.20;99.90
23186;DHT22;11761;51.324;4.590;2022-10-30T10:19:29;18.20;99.90
23186;DHT22;11761;51.324;4.590;2022-10-30T10:22:01;18.20;99.90
23186;DHT22;11761;51.324;4.590;2022-10-30T10:24:33;18.00;99.90
23186;DHT22;11761;51.324;4.590;2022-10-30T10:30:07;18.30;99.90
23186;DHT22;11761;51.324;4.590;2022-10-30T10:33:05;18.40;99.90
23186;DHT22;11761;51.324;4.590;2022-10-30T10:52:10;18.20;99.90
23186;DHT22;11761;51.324;4.590;2022-10-30T10:54:40;18.10;99.90
23186;DHT22;11761;51.324;4.590;2022-10-30T10:57:15;18.10;99.90
23186;DHT22;11761;51.324;4.590;2022-10-30T10:59:50;18.10;99.90
23186;DHT22;11761;51.324;4.590;2022-10-30T11:02:32;18.20;99.90
23186;DHT22;11761;51.324;4.590;2022-10-30T11:05:07;18.10;99.90
23186;DHT22;11761;51.324;4.590;2022-10-30T11:07:46;18.20;99.90
23186;DHT22;11761;51.324;4.590;2022-10-30T11:10:15;18.50;99.90
23186;DHT22;11761;51.324;4.590;2022-10-30T11:12:41;18.70;99.90
23186;DHT22;11761;51.324;4.590;2022-10-30T11:15:35;18.80;99.90
23186;DHT22;11761;51.324;4.590;2022-10-30T11:18:04;18.80;99.90
23186;DHT22;11761;51.324;4.590;2022-10-30T11:23:02;18.80;99.90
23186;DHT22;11761;51.324;4.590;2022-10-30T11:25:33;18.80;99.90
23186;DHT22;11761;51.324;4.590;2022-10-30T11:28:03;18.80;99.90
23186;DHT22;11761;51.324;4.590;2022-10-30T11:30:30;18.80;99.90
23186;DHT22;11761;51.324;4.590;2022-10-30T11:32:57;18.80;99.90
23186;DHT22;11761;51.324;4.590;2022-10-30T11:35:24;18.80;99.90
23186;DHT22;11761;51.324;4.590;2022-10-30T11:38:12;18.80;99.90
23186;DHT22;11761;51.324;4.590;2022-10-30T11:40:46;18.90;99.90
23186;DHT22;11761;51.324;4.590;2022-10-30T11:43:15;18.80;99.90
23186;DHT22;11761;51.324;4.590;2022-10-30T11:45:44;18.90;99.90
23186;DHT22;11761;51.324;4.590;2022-10-30T11:48:26;18.80;99.90
23186;DHT22;11761;51.324;4.590;2022-10-30T11:50:59;18.90;99.90
23186;DHT22;11761;51.324;4.590;2022-10-30T11:56:01;18.70;99.90
23186;DHT22;11761;51.324;4.590;2022-10-30T11:58:34;18.70;99.90
23186;DHT22;11761;51.324;4.590;2022-10-30T12:01:20;18.70;99.90
23186;DHT22;11761;51.324;4.590;2022-10-30T12:03:47;18.60;99.90
23186;DHT22;11761;51.324;4.590;2022-10-30T12:09:10;18.70;99.90
23186;DHT22;11761;51.324;4.590;2022-10-30T12:11:38;18.80;99.90
23186;DHT22;11761;51.324;4.590;2022-10-30T12:14:19;18.80;99.90
23186;DHT22;11761;51.324;4.590;2022-10-30T12:16:50;18.80;99.90
23186;DHT22;11761;51.324;4.590;2022-10-30T12:19:19;18.90;99.90
23186;DHT22;11761;51.324;4.590;2022-10-30T12:21:50;18.90;99.90
23186;DHT22;11761;51.324;4.590;2022-10-30T12:24:31;18.90;99.90
23186;DHT22;11761;51.324;4.590;2022-10-30T12:27:05;18.90;99.90
23186;DHT22;11761;51.324;4.590;2022-10-30T12:30:36;18.90;99.90
23186;DHT22;11761;51.324;4.590;2022-10-30T12:32:56;18.80;99.90
23186;DHT22;11761;51.324;4.590;2022-10-30T12:35:43;18.70;99.90
23186;DHT22;11761;51.324;4.590;2022-10-30T12:38:27;18.70;99.90
23186;DHT22;11761;51.324;4.590;2022-10-30T12:44:01;18.80;99.90
23186;DHT22;11761;51.324;4.590;2022-10-30T12:46:32;18.80;99.90
23186;DHT22;11761;51.324;4.590;2022-10-30T12:49:26;18.80;99.90
23186;DHT22;11761;51.324;4.590;2022-10-30T12:52:04;18.80;99.90
23186;DHT22;11761;51.324;4.590;2022-10-30T12:54:49;18.90;99.90
23186;DHT22;11761;51.324;4.590;2022-10-30T12:57:24;18.90;99.90
23186;DHT22;11761;51.324;4.590;2022-10-30T13:00:06;19.00;99.90
23186;DHT22;11761;51.324;4.590;2022-10-30T13:07:58;18.90;99.90
23186;DHT22;11761;51.324;4.590;2022-10-30T13:10:45;19.00;99.90
23186;DHT22;11761;51.324;4.590;2022-10-30T13:13:31;19.10;99.90
23186;DHT22;11761;51.324;4.590;2022-10-30T13:16:01;19.30;99.90
23186;DHT22;11761;51.324;4.590;2022-10-30T13:18:28;19.40;99.90
23186;DHT22;11761;51.324;4.590;2022-10-30T13:23:51;19.60;99.90
23186;DHT22;11761;51.324;4.590;2022-10-30T13:26:33;19.70;99.90
23186;DHT22;11761;51.324;4.590;2022-10-30T13:32:02;19.80;99.90
23186;DHT22;11761;51.324;4.590;2022-10-30T13:34:53;19.90;99.90
23186;DHT22;11761;51.324;4.590;2022-10-30T13:37:41;20.00;99.90
23186;DHT22;11761;51.324;4.590;2022-10-30T13:40:30;20.00;99.90
23186;DHT22;11761;51.324;4.590;2022-10-30T13:45:46;20.10;99.90
23186;DHT22;11761;51.324;4.590;2022-10-30T13:48:23;20.10;99.90
23186;DHT22;11761;51.324;4.590;2022-10-30T13:53:42;20.30;99.90
23186;DHT22;11761;51.324;4.590;2022-10-30T13:56:14;20.30;99.90
23186;DHT22;11761;51.324;4.590;2022-10-30T13:58:47;20.20;99.90
23186;DHT22;11761;51.324;4.590;2022-10-30T14:01:34;20.30;99.90
23186;DHT22;11761;51.324;4.590;2022-10-30T14:04:17;20.30;99.90
23186;DHT22;11761;51.324;4.590;2022-10-30T14:11:44;20.10;99.90
23186;DHT22;11761;51.324;4.590;2022-10-30T14:22:31;20.20;99.90
23186;DHT22;11761;51.324;4.590;2022-10-30T14:24:58;20.20;99.90
23186;DHT22;11761;51.324;4.590;2022-10-30T14:27:32;20.10;99.90
23186;DHT22;11761;51.324;4.590;2022-10-30T14:29:58;19.90;99.90
23186;DHT22;11761;51.324;4.590;2022-10-30T14:43:35;19.30;99.90
23186;DHT22;11761;51.324;4.590;2022-10-30T14:46:23;19.20;99.90
23186;DHT22;11761;51.324;4.590;2022-10-30T14:49:23;19.10;99.90
23186;DHT22;11761;51.324;4.590;2022-10-30T14:52:02;19.00;99.90
23186;DHT22;11761;51.324;4.590;2022-10-30T14:54:49;18.90;99.90
23186;DHT22;11761;51.324;4.590;2022-10-30T14:57:43;18.70;99.90
23186;DHT22;11761;51.324;4.590;2022-10-30T15:05:54;18.30;99.90
23186;DHT22;11761;51.324;4.590;2022-10-30T15:08:52;18.20;99.90
23186;DHT22;11761;51.324;4.590;2022-10-30T15:14:52;18.00;99.90
23186;DHT22;11761;51.324;4.590;2022-10-30T15:16:52;17.90;99.90
23186;DHT22;11761;51.324;4.590;2022-10-30T15:19:20;17.90;99.90
23186;DHT22;11761;51.324;4.590;2022-10-30T15:21:52;17.80;99.90
23186;DHT22;11761;51.324;4.590;2022-10-30T15:24:22;17.80;99.90
23186;DHT22;11761;51.324;4.590;2022-10-30T15:26:54;17.70;99.90
23186;DHT22;11761;51.324;4.590;2022-10-30T15:29:34;17.50;99.90
23186;DHT22;11761;51.324;4.590;2022-10-30T15:32:14;17.30;99.90
23186;DHT22;11761;51.324;4.590;2022-10-30T15:35:00;17.30;99.90
23186;DHT22;11761;51.324;4.590;2022-10-30T15:37:30;17.20;99.90
23186;DHT22;11761;51.324;4.590;2022-10-30T15:40:16;17.10;99.90
23186;DHT22;11761;51.324;4.590;2022-10-30T15:42:45;17.00;99.90
23186;DHT22;11761;51.324;4.590;2022-10-30T15:45:36;16.90;99.90
23186;DHT22;11761;51.324;4.590;2022-10-30T15:48:23;16.80;99.90
23186;DHT22;11761;51.324;4.590;2022-10-30T15:51:16;16.80;99.90
23186;DHT22;11761;51.324;4.590;2022-10-30T15:53:54;16.70;99.90
23186;DHT22;11761;51.324;4.590;2022-10-30T15:58:56;16.60;99.90
23186;DHT22;11761;51.324;4.590;2022-10-30T16:01:33;16.50;99.90
23186;DHT22;11761;51.324;4.590;2022-10-30T16:03:59;16.40;99.90
23186;DHT22;11761;51.324;4.590;2022-10-30T16:06:28;16.40;99.90
23186;DHT22;11761;51.324;4.590;2022-10-30T16:08:54;16.40;99.90
23186;DHT22;11761;51.324;4.590;2022-10-30T16:11:22;16.20;99.90
23186;DHT22;11761;51.324;4.590;2022-10-30T16:13:49;16.10;99.90
23186;DHT22;11761;51.324;4.590;2022-10-30T16:16:25;16.00;99.90
23186;DHT22;11761;51.324;4.590;2022-10-30T16:18:56;15.80;99.90
23186;DHT22;11761;51.324;4.590;2022-10-30T16:21:24;15.80;99.90
23186;DHT22;11761;51.324;4.590;2022-10-30T16:23:58;15.60;99.90
23186;DHT22;11761;51.324;4.590;2022-10-30T16:26:44;15.50;99.90
23186;DHT22;11761;51.324;4.590;2022-10-30T16:31:46;15.40;99.90
23186;DHT22;11761;51.324;4.590;2022-10-30T16:34:33;15.30;99.90
23186;DHT22;11761;51.324;4.590;2022-10-30T16:37:04;15.40;99.90
23186;DHT22;11761;51.324;4.590;2022-10-30T16:39:32;15.20;99.90
23186;DHT22;11761;51.324;4.590;2022-10-30T16:41:59;15.20;99.90
23186;DHT22;11761;51.324;4.590;2022-10-30T16:44:33;15.10;99.90
23186;DHT22;11761;51.324;4.590;2022-10-30T16:49:45;15.10;99.90
23186;DHT22;11761;51.324;4.590;2022-10-30T16:52:14;14.90;99.90
23186;DHT22;11761;51.324;4.590;2022-10-30T16:54:46;14.90;99.90
23186;DHT22;11761;51.324;4.590;2022-10-30T16:57:24;14.80;99.90
23186;DHT22;11761;51.324;4.590;2022-10-30T16:59:52;14.80;99.90
23186;DHT22;11761;51.324;4.590;2022-10-30T17:02:25;14.80;99.90
23186;DHT22;11761;51.324;4.590;2022-10-30T17:05:07;14.80;99.90
23186;DHT22;11761;51.324;4.590;2022-10-30T17:07:36;14.80;99.90
23186;DHT22;11761;51.324;4.590;2022-10-30T17:10:03;14.70;99.90
23186;DHT22;11761;51.324;4.590;2022-10-30T17:12:49;14.70;99.90
23186;DHT22;11761;51.324;4.590;2022-10-30T17:15:19;14.70;99.90
23186;DHT22;11761;51.324;4.590;2022-10-30T17:18:09;14.70;99.90
23186;DHT22;11761;51.324;4.590;2022-10-30T17:20:36;14.50;99.90
23186;DHT22;11761;51.324;4.590;2022-10-30T17:23:32;14.50;99.90
23186;DHT22;11761;51.324;4.590;2022-10-30T17:26:07;14.40;99.90
23186;DHT22;11761;51.324;4.590;2022-10-30T17:28:34;14.20;99.90
23186;DHT22;11761;51.324;4.590;2022-10-30T17:31:26;14.20;99.90
23186;DHT22;11761;51.324;4.590;2022-10-30T17:34:30;14.20;99.90
23186;DHT22;11761;51.324;4.590;2022-10-30T17:37:01;14.10;99.90
23186;DHT22;11761;51.324;4.590;2022-10-30T17:39:27;14.00;99.90
23186;DHT22;11761;51.324;4.590;2022-10-30T17:41:55;14.00;99.90
23186;DHT22;11761;51.324;4.590;2022-10-30T17:44:23;13.90;99.90
23186;DHT22;11761;51.324;4.590;2022-10-30T17:46:50;13.90;99.90
23186;DHT22;11761;51.324;4.590;2022-10-30T17:49:29;13.90;99.90
23186;DHT22;11761;51.324;4.590;2022-10-30T17:51:55;13.90;99.90
23186;DHT22;11761;51.324;4.590;2022-10-30T17:54:22;13.90;99.90
23186;DHT22;11761;51.324;4.590;2022-10-30T17:56:48;13.90;99.90
23186;DHT22;11761;51.324;4.590;2022-10-30T17:59:15;13.90;99.90
23186;DHT22;11761;51.324;4.590;2022-10-30T18:01:41;13.80;99.90